createdAt,value
2016-02-03T13:12:45.524Z,82.89
2016-02-03T13:13:45.464Z,83.08
2016-02-03T13:14:45.468Z,82.13
2016-02-03T13:15:45.438Z,82.04
2016-02-03T13:16:45.440Z,83.08
2016-02-03T13:17:45.428Z,83.84
2016-02-03T13:18:45.435Z,82.89
2016-02-03T13:19:45.421Z,82.13
2016-02-03T13:20:45.424Z,81.09
2016-02-03T13:21:45.430Z,80.14
2016-02-03T13:22:45.433Z,80.04
2016-02-03T13:23:45.388Z,79.28
2016-02-03T13:24:45.391Z,79.1
2016-02-03T13:25:45.393Z,79.33
2016-02-03T13:26:45.399Z,80.65
2016-02-03T13:27:45.386Z,81.13
2016-02-03T13:28:45.375Z,80.65
2016-02-03T13:29:45.377Z,80.08
2016-02-03T13:30:45.381Z,79.65
2016-02-03T13:31:45.367Z,78.42
2016-02-03T13:32:45.401Z,78.03
2016-02-03T13:33:45.375Z,77.18
2016-02-03T13:34:45.377Z,76.52
2016-02-03T13:35:45.380Z,75
2016-02-03T13:36:45.384Z,75.67
2016-02-03T13:37:45.386Z,75
2016-02-03T13:38:45.389Z,75.57
2016-02-03T13:39:45.407Z,75.47
2016-02-03T13:40:45.381Z,75.57
2016-02-03T13:41:45.383Z,75.19
2016-02-03T13:42:45.387Z,75.09
2016-02-03T13:43:45.374Z,74.81
2016-02-03T13:44:45.392Z,74.81
2016-02-03T13:45:45.411Z,74.81
2016-02-03T13:46:45.414Z,74.9
2016-02-03T13:47:45.386Z,74.81
2016-02-03T13:48:45.389Z,72.53
2016-02-03T13:49:45.392Z,72.81
2016-02-03T13:50:45.379Z,73
2016-02-03T13:51:45.412Z,73.67
2016-02-03T13:52:45.403Z,72.53
2016-02-03T13:53:45.452Z,71.48
2016-02-03T13:54:45.392Z,70.82
2016-02-03T13:55:45.394Z,71.11
2016-02-03T13:56:45.394Z,70.19
2016-02-03T13:57:45.398Z,70.73
2016-02-03T13:58:45.386Z,71.52
2016-02-03T13:59:45.388Z,71.71
2016-02-03T14:00:45.394Z,70.67
2016-02-03T14:01:45.412Z,70.95
2016-02-03T14:02:45.400Z,70.48
2016-02-03T14:03:45.387Z,70.76
2016-02-03T14:04:45.406Z,70.57
2016-02-03T14:05:45.408Z,70.38
2016-02-03T14:06:45.396Z,69.15
2016-02-03T14:07:45.398Z,67.91
2016-02-03T14:08:45.416Z,67.91
2016-02-03T14:09:45.419Z,68.58
2016-02-03T14:10:45.421Z,68.58
2016-02-03T14:11:45.409Z,69.05
2016-02-03T14:12:45.415Z,69.62
2016-02-03T14:13:45.432Z,70.1
2016-02-03T14:14:45.435Z,69.71
2016-02-03T14:15:45.423Z,70.29
2016-02-03T14:16:45.425Z,70.19
2016-02-03T14:17:45.428Z,70.76
2016-02-03T14:18:45.432Z,69.91
2016-02-03T14:19:45.449Z,70.76
2016-02-03T14:20:45.452Z,70.67
2016-02-03T14:21:45.440Z,70.19
2016-02-03T14:22:45.426Z,71.14
2016-02-03T14:23:45.460Z,72.75
2016-02-03T14:24:45.433Z,73.1
2016-02-03T14:25:45.435Z,73.48
2016-02-03T14:26:45.438Z,73.19
2016-02-03T14:27:45.456Z,73.1
2016-02-03T14:28:45.444Z,73.38
2016-02-03T14:29:45.422Z,75
2016-02-03T14:30:45.440Z,75.43
2016-02-03T14:31:45.444Z,76.57
2016-02-03T14:32:45.432Z,79.52
2016-02-03T14:33:45.449Z,79.33
2016-02-03T14:34:45.452Z,79.28
2016-02-03T14:35:45.440Z,79.47
2016-02-03T14:36:45.428Z,79.85
2016-02-03T14:37:45.431Z,80.71
2016-02-03T14:38:45.434Z,82.7
2016-02-03T14:39:45.437Z,82.56
2016-02-03T14:40:45.439Z,81.81
2016-02-03T14:41:45.426Z,82.56
2016-02-03T14:42:45.445Z,83.04
2016-02-03T14:43:45.432Z,83.23
2016-02-03T14:44:45.436Z,83.98
2016-02-03T14:45:45.438Z,83.98
2016-02-03T14:46:45.440Z,83.89
2016-02-03T14:47:45.412Z,83.98
2016-02-03T14:48:45.415Z,84.46
2016-02-03T14:49:45.434Z,85.03
2016-02-03T14:50:45.451Z,84.84
2016-02-03T14:51:45.423Z,85.03
2016-02-03T14:52:45.410Z,83.7
2016-02-03T14:53:45.428Z,84.17
2016-02-03T14:54:45.416Z,84.17
2016-02-03T14:55:45.421Z,83.98
2016-02-03T14:56:45.423Z,84.17
2016-02-03T14:57:45.411Z,84.36
2016-02-03T14:58:45.429Z,83.98
2016-02-03T14:59:45.417Z,84.17
2016-02-03T15:00:45.420Z,83.98
2016-02-03T15:01:45.438Z,84.27
2016-02-03T15:02:45.393Z,85.13
2016-02-03T15:03:45.414Z,84.27
2016-02-03T15:04:45.383Z,84.74
2016-02-03T15:05:45.385Z,84.17
2016-02-03T15:06:45.388Z,83.23
2016-02-03T15:07:45.613Z,82.18
2016-02-03T15:08:45.395Z,82.09
2016-02-03T15:09:45.666Z,82.94
2016-02-03T15:10:45.385Z,83.23
2016-02-03T15:11:45.371Z,83.42
2016-02-03T15:12:45.640Z,84.17
2016-02-03T15:13:45.378Z,83.98
2016-02-03T15:14:45.381Z,83.61
2016-02-03T15:15:45.384Z,84.17
2016-02-03T15:16:45.373Z,83.32
2016-02-03T15:17:45.376Z,83.89
2016-02-03T15:18:45.378Z,83.8
2016-02-03T15:19:45.383Z,83.42
2016-02-03T15:20:46.136Z,83.51
2016-02-03T15:21:45.356Z,84.27
2016-02-03T15:22:45.359Z,84.08
2016-02-03T15:23:45.377Z,84.17
2016-02-03T15:24:45.365Z,83.42
2016-02-03T15:25:45.367Z,83.7
2016-02-03T15:26:45.386Z,83.13
2016-02-03T15:27:45.341Z,83.13
2016-02-03T15:28:45.375Z,83.04
2016-02-03T15:29:45.347Z,83.13
2016-02-03T15:30:45.349Z,82.94
2016-02-03T15:31:46.400Z,82.56
2016-02-03T15:32:45.355Z,83.51
2016-02-03T15:33:45.342Z,82.18
2016-02-03T15:34:45.345Z,82.37
2016-02-03T15:35:45.348Z,82.47
2016-02-03T15:36:45.351Z,83.13
2016-02-03T15:37:45.338Z,83.04
2016-02-03T15:38:45.325Z,82.89
2016-02-03T15:39:45.328Z,82.6
2016-02-03T15:40:46.658Z,82.32
2016-02-03T15:41:45.333Z,82.6
2016-02-03T15:42:45.336Z,82.04
2016-02-03T15:43:45.355Z,81.75
2016-02-03T15:44:45.341Z,82.23
2016-02-03T15:45:45.344Z,82.51
2016-02-03T15:46:45.337Z,81.85
2016-02-03T15:47:45.386Z,80.9
2016-02-03T15:48:45.342Z,80.33
2016-02-03T15:49:45.329Z,79.1
2016-02-03T15:50:45.316Z,79.57
2016-02-03T15:51:45.318Z,79.57
2016-02-03T15:52:45.337Z,78.81
2016-02-03T15:53:45.340Z,79.1
2016-02-03T15:54:45.311Z,79.1
2016-02-03T15:55:45.329Z,79.28
2016-02-03T15:56:45.348Z,79.47
2016-02-03T15:57:45.304Z,79.19
2016-02-03T15:58:45.324Z,78.72
2016-02-03T15:59:45.341Z,76.15
2016-02-03T16:00:45.312Z,75.78
2016-02-03T16:01:45.347Z,77.11
2016-02-03T16:02:45.302Z,77.29
2016-02-03T16:03:45.305Z,77.96
2016-02-03T16:04:45.293Z,78.43
2016-02-03T16:05:45.311Z,77.01
2016-02-03T16:06:45.298Z,76.25
2016-02-03T16:07:45.316Z,76.25
2016-02-03T16:08:45.306Z,75.96
2016-02-03T16:09:46.214Z,75.96
2016-02-03T16:10:45.281Z,76.73
2016-02-03T16:11:45.236Z,77.01
2016-02-03T16:12:46.333Z,76.92
2016-02-03T16:13:45.047Z,77.96
2016-02-03T16:14:45.200Z,77.86
2016-02-03T16:15:45.228Z,77.01
2016-02-03T16:16:45.195Z,75.59
2016-02-03T16:17:45.192Z,74.92
2016-02-03T16:18:47.600Z,74.92
2016-02-03T16:19:45.178Z,74.45
2016-02-03T16:20:45.257Z,75.02
2016-02-03T16:21:45.180Z,75.02
2016-02-03T16:22:45.197Z,75.11
2016-02-03T16:23:47.717Z,74.64
2016-02-03T16:24:45.157Z,75.02
2016-02-03T16:25:45.161Z,75.31
2016-02-03T16:26:45.163Z,75.02
2016-02-03T16:27:45.164Z,75.59
2016-02-03T16:28:45.151Z,75.78
2016-02-03T16:29:45.153Z,75.78
2016-02-03T16:30:45.156Z,75.4
2016-02-03T16:31:45.174Z,75.4
2016-02-03T16:32:48.005Z,75.55
2016-02-03T16:33:45.163Z,75.84
2016-02-03T16:34:46.542Z,76.21
2016-02-03T16:35:45.153Z,75.93
2016-02-03T16:36:45.141Z,75.17
2016-02-03T16:37:45.159Z,75.64
2016-02-03T16:38:45.161Z,76.21
2016-02-03T16:39:45.149Z,76.97
2016-02-03T16:40:45.136Z,77.06
2016-02-03T16:41:45.155Z,77.83
2016-02-03T16:42:45.128Z,77.64
2016-02-03T16:43:45.131Z,77.73
2016-02-03T16:44:48.244Z,78.87
2016-02-03T16:45:45.121Z,78.77
2016-02-03T16:46:45.108Z,78.87
2016-02-03T16:47:45.159Z,79.25
2016-02-03T16:48:48.348Z,79.15
2016-02-03T16:49:45.102Z,79.06
2016-02-03T16:50:45.121Z,79.15
2016-02-03T16:51:46.827Z,78.67
2016-02-03T16:52:45.108Z,79.44
2016-02-03T16:53:45.110Z,79.34
2016-02-03T16:54:45.114Z,79.34
2016-02-03T16:55:45.102Z,79.53
2016-02-03T16:56:45.114Z,79.72
2016-02-03T16:57:45.101Z,79.63
2016-02-03T16:58:45.119Z,80.1
2016-02-03T16:59:45.090Z,79.06
2016-02-03T17:00:45.125Z,80
2016-02-03T17:01:45.112Z,79.25
2016-02-03T17:02:45.084Z,78.87
2016-02-03T17:03:45.086Z,78.87
2016-02-03T17:04:45.104Z,78.67
2016-02-03T17:05:45.076Z,78.49
2016-02-03T17:06:45.079Z,78.96
2016-02-03T17:07:45.082Z,79.34
2016-02-03T17:08:45.084Z,78.87
2016-02-03T17:09:45.072Z,78.39
2016-02-03T17:10:45.075Z,78.87
2016-02-03T17:11:45.094Z,78.67
2016-02-03T17:12:47.033Z,78.39
2016-02-03T17:13:45.052Z,78.11
2016-02-03T17:14:45.056Z,78.49
2016-02-03T17:15:48.731Z,78.2
2016-02-03T17:16:45.062Z,78.02
2016-02-03T17:17:45.048Z,77.64
2016-02-03T17:18:47.067Z,77.25
2016-02-03T17:19:45.069Z,77.83
2016-02-03T17:20:45.088Z,78.2
2016-02-03T17:21:45.092Z,77.92
2016-02-03T17:22:45.048Z,77.64
2016-02-03T17:23:45.051Z,77.16
2016-02-03T17:24:45.084Z,77.92
2016-02-03T17:25:45.039Z,78.02
2016-02-03T17:26:45.043Z,77.16
2016-02-03T17:27:48.936Z,77.64
2016-02-03T17:28:45.064Z,78.49
2016-02-03T17:29:45.050Z,77.73
2016-02-03T17:30:45.053Z,77.83
2016-02-03T17:31:45.103Z,80.29
2016-02-03T17:32:45.106Z,81.05
2016-02-03T17:33:45.031Z,82.09
2016-02-03T17:34:45.034Z,81.71
2016-02-03T17:35:47.303Z,82.18
2016-02-03T17:36:45.023Z,81.9
2016-02-03T17:37:45.011Z,82.56
2016-02-03T17:38:45.019Z,82.75
2016-02-03T17:39:45.021Z,82.71
2016-02-03T17:40:45.010Z,83.37
2016-02-03T17:41:45.028Z,83.18
2016-02-03T17:42:45.031Z,83.37
2016-02-03T17:43:45.033Z,83.56
2016-02-03T17:44:44.990Z,83.94
2016-02-03T17:45:44.992Z,84.32
2016-02-03T17:46:44.996Z,83.98
2016-02-03T17:47:47.419Z,84.13
2016-02-03T17:48:45.006Z,84.17
2016-02-03T17:49:45.009Z,83.51
2016-02-03T17:50:44.996Z,83.61
2016-02-03T17:51:44.999Z,83.23
2016-02-03T17:52:44.987Z,82.94
2016-02-03T17:53:44.989Z,82.28
2016-02-03T17:54:44.977Z,82.18
2016-02-03T17:55:47.525Z,81.05
2016-02-03T17:56:44.982Z,78.67
2016-02-03T17:57:45.000Z,78.67
2016-02-03T17:58:44.972Z,79.06
2016-02-03T17:59:44.974Z,79.25
2016-02-03T18:00:44.977Z,79.34
2016-02-03T18:01:44.964Z,80
2016-02-03T18:02:47.607Z,79.34
2016-02-03T18:03:44.969Z,78.67
2016-02-03T18:04:44.988Z,78.77
2016-02-03T18:05:44.979Z,78.96
2016-02-03T18:06:44.967Z,78.02
2016-02-03T18:07:47.984Z,76.97
2016-02-03T18:08:44.956Z,75.84
2016-02-03T18:09:44.959Z,77.45
2016-02-03T18:10:44.962Z,78.77
2016-02-03T18:11:44.948Z,79.44
2016-02-03T18:12:44.954Z,79.44
2016-02-03T18:13:49.613Z,78.96
2016-02-03T18:14:44.944Z,79.53
2016-02-03T18:15:47.728Z,79.15
2016-02-03T18:16:44.949Z,78.3
2016-02-03T18:17:44.939Z,77.83
2016-02-03T18:18:44.942Z,78.3
2016-02-03T18:19:44.946Z,78.87
2016-02-03T18:20:44.933Z,79.11
2016-02-03T18:21:47.857Z,78.16
2016-02-03T18:22:44.937Z,77.45
2016-02-03T18:23:44.988Z,78.16
2016-02-03T18:24:44.931Z,78.45
2016-02-03T18:25:44.918Z,77.31
2016-02-03T18:26:49.077Z,77.06
2016-02-03T18:27:44.939Z,75.32
2016-02-03T18:28:44.942Z,75.04
2016-02-03T18:29:44.914Z,74.66
2016-02-03T18:30:44.948Z,74.95
2016-02-03T18:31:44.920Z,75.79
2016-02-03T18:32:44.907Z,76.08
2016-02-03T18:33:44.910Z,76.65
2016-02-03T18:34:44.913Z,76.65
2016-02-03T18:35:44.915Z,74.28
2016-02-03T18:36:44.889Z,75.32
2016-02-03T18:37:48.908Z,75.6
2016-02-03T18:38:44.884Z,74.95
2016-02-03T18:39:44.906Z,75.32
2016-02-03T18:40:48.893Z,75.23
2016-02-03T18:41:47.224Z,75.7
2016-02-03T18:42:44.883Z,76.17
2016-02-03T18:43:44.869Z,75.51
2016-02-03T18:44:44.872Z,75.7
2016-02-03T18:45:44.891Z,74.66
2016-02-03T18:46:47.284Z,73.71
2016-02-03T18:47:44.865Z,74.09
2016-02-03T18:48:44.883Z,74.28
2016-02-03T18:49:44.886Z,72.86
2016-02-03T18:50:47.295Z,72.57
2016-02-03T18:51:44.860Z,72.96
2016-02-03T18:52:49.096Z,72.67
2016-02-03T18:53:44.850Z,73.71
2016-02-03T18:54:44.852Z,73.71
2016-02-03T18:55:44.855Z,73.61
2016-02-03T18:56:44.858Z,75.04
2016-02-03T18:57:44.850Z,74.85
2016-02-03T18:58:44.885Z,75.13
2016-02-03T18:59:44.857Z,75.23
2016-02-03T19:00:44.860Z,75.98
2016-02-03T19:01:44.830Z,74.85
2016-02-03T19:02:44.833Z,75.51
2016-02-03T19:03:44.821Z,75.98
2016-02-03T19:04:44.824Z,76.65
2016-02-03T19:05:44.827Z,76.84
2016-02-03T19:06:44.811Z,77.69
2016-02-03T19:07:44.813Z,77.88
2016-02-03T19:08:44.802Z,77.59
2016-02-03T19:09:47.445Z,77.31
2016-02-03T19:10:44.808Z,77.97
2016-02-03T19:11:44.794Z,77.78
2016-02-03T19:12:44.797Z,77.78
2016-02-03T19:13:44.801Z,78.16
2016-02-03T19:14:44.804Z,78.26
2016-02-03T19:15:44.792Z,78.16
2016-02-03T19:16:44.794Z,78.73
2016-02-03T19:17:44.797Z,78.45
2016-02-03T19:18:44.802Z,78.26
2016-02-03T19:19:44.774Z,78.35
2016-02-03T19:20:44.776Z,78.45
2016-02-03T19:21:44.763Z,78.35
2016-02-03T19:22:44.765Z,78.07
2016-02-03T19:23:47.663Z,78.35
2016-02-03T19:24:44.774Z,78.07
2016-02-03T19:25:47.637Z,78.64
2016-02-03T19:26:44.748Z,78.59
2016-02-03T19:27:44.770Z,78.54
2016-02-03T19:28:44.757Z,78.26
2016-02-03T19:29:49.666Z,78.79
2016-02-03T19:30:44.746Z,78.64
2016-02-03T19:31:44.749Z,78.59
2016-02-03T19:32:49.705Z,78.98
2016-02-03T19:33:44.741Z,78.41
2016-02-03T19:34:44.746Z,78.79
2016-02-03T19:35:44.748Z,77.46
2016-02-03T19:36:44.740Z,78.22
2016-02-03T19:37:44.727Z,77.94
2016-02-03T19:38:44.730Z,78.03
2016-02-03T19:39:44.719Z,78.79
2016-02-03T19:40:49.658Z,78.79
2016-02-03T19:41:44.707Z,78.79
2016-02-03T19:42:44.711Z,79.07
2016-02-03T19:43:44.713Z,78.98
2016-02-03T19:44:44.719Z,78.69
2016-02-03T19:45:44.705Z,78.13
2016-02-03T19:46:44.709Z,77.84
2016-02-03T19:47:44.699Z,77.08
2016-02-03T19:48:44.702Z,77.08
2016-02-03T19:49:44.705Z,77.27
2016-02-03T19:50:44.693Z,77.08
2016-02-03T19:51:44.697Z,77.37
2016-02-03T19:52:50.137Z,77.84
2016-02-03T19:53:44.676Z,77.18
2016-02-03T19:54:44.681Z,76.14
2016-02-03T19:55:44.669Z,76.32
2016-02-03T19:56:44.671Z,76.89
2016-02-03T19:57:44.658Z,77.18
2016-02-03T19:58:44.661Z,77.27
2016-02-03T19:59:44.664Z,77.08
2016-02-03T20:00:44.668Z,77.27
2016-02-03T20:01:44.654Z,76.8
2016-02-03T20:02:44.641Z,76.89
2016-02-03T20:03:44.645Z,76.61
2016-02-03T20:04:44.662Z,76.61
2016-02-03T20:05:44.650Z,76.99
2016-02-03T20:06:44.636Z,75.85
2016-02-03T20:07:44.639Z,75.57
2016-02-03T20:08:44.627Z,74.81
2016-02-03T20:09:44.630Z,74.9
2016-02-03T20:10:44.616Z,74.24
2016-02-03T20:11:44.619Z,75.09
2016-02-03T20:12:44.621Z,75
2016-02-03T20:13:44.608Z,75.09
2016-02-03T20:14:44.611Z,75.66
2016-02-03T20:15:44.614Z,74.81
2016-02-03T20:16:44.602Z,75
2016-02-03T20:17:44.604Z,75.04
2016-02-03T20:18:44.607Z,75.04
2016-02-03T20:19:44.580Z,74.75
2016-02-03T20:20:47.802Z,75.32
2016-02-03T20:21:44.587Z,74.95
2016-02-03T20:22:44.589Z,75.51
2016-02-03T20:23:44.592Z,75.51
2016-02-03T20:24:44.579Z,75.89
2016-02-03T20:25:44.566Z,75.7
2016-02-03T20:26:44.569Z,73.61
2016-02-03T20:27:47.822Z,72.96
2016-02-03T20:28:44.575Z,73.43
2016-02-03T20:29:44.578Z,73.52
2016-02-03T20:30:44.565Z,73.61
2016-02-03T20:31:44.553Z,74.56
2016-02-03T20:32:44.539Z,74.56
2016-02-03T20:33:44.544Z,74.28
2016-02-03T20:34:44.765Z,74.66
2016-02-03T20:35:44.548Z,74.37
2016-02-03T20:36:44.536Z,73.43
2016-02-03T20:37:44.539Z,73.71
2016-02-03T20:38:45.026Z,73.71
2016-02-03T20:39:50.170Z,73.71
2016-02-03T20:40:44.529Z,73.71
2016-02-03T20:41:44.579Z,73.8
2016-02-03T20:42:50.145Z,73.14
2016-02-03T20:43:44.521Z,73.52
2016-02-03T20:44:44.525Z,73.99
2016-02-03T20:45:44.512Z,74.09
2016-02-03T20:46:44.515Z,73.33
2016-02-03T20:47:46.877Z,73.71
2016-02-03T20:48:44.520Z,72.96
2016-02-03T20:49:44.507Z,73.24
2016-02-03T20:50:44.510Z,73.14
2016-02-03T20:51:44.514Z,73.33
2016-02-03T20:52:46.737Z,73.33
2016-02-03T20:53:44.504Z,72.67
2016-02-03T20:54:44.507Z,73.24
2016-02-03T20:55:44.495Z,72.86
2016-02-03T20:56:44.482Z,73.05
2016-02-03T20:57:46.781Z,73.33
2016-02-03T20:58:44.503Z,74.85
2016-02-03T20:59:44.490Z,74.75
2016-02-03T21:00:44.477Z,74.28
2016-02-03T21:01:44.480Z,74.09
2016-02-03T21:02:44.467Z,74.37
2016-02-03T21:03:44.470Z,74.37
2016-02-03T21:04:44.473Z,74.09
2016-02-03T21:05:44.460Z,74.09
2016-02-03T21:06:44.478Z,73.99
2016-02-03T21:07:44.465Z,73.33
2016-02-03T21:08:44.453Z,73.24
2016-02-03T21:09:44.456Z,72.86
2016-02-03T21:10:44.458Z,73.24
2016-02-03T21:11:44.444Z,73.71
2016-02-03T21:12:44.447Z,73.99
2016-02-03T21:13:44.451Z,73.61
2016-02-03T21:14:44.438Z,73.43
2016-02-03T21:15:44.488Z,73.61
2016-02-03T21:16:44.443Z,73.71
2016-02-03T21:17:44.431Z,73.71
2016-02-03T21:18:44.434Z,73.8
2016-02-03T21:19:44.437Z,74.09
2016-02-03T21:20:44.426Z,74.09
2016-02-03T21:21:44.447Z,74.47
2016-02-03T21:22:44.434Z,73.99
2016-02-03T21:23:44.437Z,73.71
2016-02-03T21:24:44.424Z,73.52
2016-02-03T21:25:44.427Z,73.71
2016-02-03T21:26:44.414Z,73.33
2016-02-03T21:27:44.417Z,73.61
2016-02-03T21:28:44.404Z,74.37
2016-02-03T21:29:44.406Z,74.18
2016-02-03T21:30:44.425Z,74.47
2016-02-03T21:31:44.412Z,74.18
2016-02-03T21:32:44.399Z,74.28
2016-02-03T21:33:44.401Z,74.85
2016-02-03T21:34:46.968Z,74.66
2016-02-03T21:35:48.830Z,74.28
2016-02-03T21:36:44.395Z,75.04
2016-02-03T21:37:44.429Z,74.75
2016-02-03T21:38:44.384Z,74.75
2016-02-03T21:39:48.840Z,74.95
2016-02-03T21:40:44.390Z,74.75
2016-02-03T21:41:44.394Z,75.23
2016-02-03T21:42:44.382Z,75.51
2016-02-03T21:43:44.385Z,75.79
2016-02-03T21:44:44.372Z,75.79
2016-02-03T21:45:44.374Z,76.84
2016-02-03T21:46:44.362Z,76.84
2016-02-03T21:47:47.147Z,75.6
2016-02-03T21:48:44.353Z,75.79
2016-02-03T21:49:44.355Z,75.7
2016-02-03T21:50:44.374Z,75.6
2016-02-03T21:51:47.115Z,75.51
2016-02-03T21:52:49.024Z,75.89
2016-02-03T21:53:44.357Z,75.89
2016-02-03T21:54:44.345Z,75.79
2016-02-03T21:55:44.363Z,75.98
2016-02-03T21:56:44.351Z,76.27
2016-02-03T21:57:44.338Z,75.6
2016-02-03T21:58:44.341Z,75.6
2016-02-03T21:59:44.328Z,76.17
2016-02-03T22:00:48.986Z,76.84
2016-02-03T22:01:44.333Z,76.65
2016-02-03T22:02:44.320Z,76.84
2016-02-03T22:03:47.057Z,76.17
2016-02-03T22:04:44.322Z,76.27
2016-02-03T22:05:44.325Z,76.17
2016-02-03T22:06:44.302Z,76.93
2016-02-03T22:07:44.305Z,76.08
2016-02-03T22:08:44.308Z,76.17
2016-02-03T22:09:47.063Z,76.65
2016-02-03T22:10:44.313Z,76.84
2016-02-03T22:11:44.284Z,76.08
2016-02-03T22:12:44.287Z,76.55
2016-02-03T22:13:49.026Z,77.03
2016-02-03T22:14:44.292Z,76.93
2016-02-03T22:15:44.295Z,77.03
2016-02-03T22:16:44.298Z,76.74
2016-02-03T22:17:44.269Z,76.65
2016-02-03T22:18:44.271Z,76.93
2016-02-03T22:19:44.274Z,76.17
2016-02-03T22:20:44.278Z,76.93
2016-02-03T22:21:44.266Z,76.74
2016-02-03T22:22:44.269Z,76.65
2016-02-03T22:23:44.256Z,76.55
2016-02-03T22:24:44.274Z,76.08
2016-02-03T22:25:44.262Z,76.84
2016-02-03T22:26:44.265Z,77.03
2016-02-03T22:27:44.252Z,76.17
2016-02-03T22:28:44.255Z,76.36
2016-02-03T22:29:44.258Z,76.17
2016-02-03T22:30:44.246Z,76.17
2016-02-03T22:31:44.265Z,77.03
2016-02-03T22:32:44.238Z,76.93
2016-02-03T22:33:44.241Z,76.46
2016-02-03T22:34:44.229Z,76.74
2016-02-03T22:35:44.232Z,76.08
2016-02-03T22:36:44.234Z,75.6
2016-02-03T22:37:44.222Z,75.98
2016-02-03T22:38:47.459Z,74.85
2016-02-03T22:39:44.227Z,75.13
2016-02-03T22:40:44.214Z,75.32
2016-02-03T22:41:44.217Z,75.6
2016-02-03T22:42:44.210Z,76.65
2016-02-03T22:43:44.212Z,75.98
2016-02-03T22:44:44.199Z,75.79
2016-02-03T22:45:44.204Z,75.98
2016-02-03T22:46:44.223Z,75.79
2016-02-03T22:47:44.209Z,75.51
2016-02-03T22:48:44.212Z,74.85
2016-02-03T22:49:44.196Z,75.13
2016-02-03T22:50:44.228Z,74.75
2016-02-03T22:51:44.246Z,74.66
2016-02-03T22:52:47.590Z,74.56
2016-02-03T22:53:50.036Z,73.99
2016-02-03T22:54:49.883Z,74.09
2016-02-03T22:55:44.183Z,74.37
2016-02-03T22:56:44.341Z,74.28
2016-02-03T22:57:44.235Z,73.61
2016-02-03T22:58:49.738Z,73.52
2016-02-03T22:59:44.211Z,73.71
2016-02-03T23:00:47.651Z,74.09
2016-02-03T23:01:44.153Z,73.33
2016-02-03T23:02:44.172Z,73.43
2016-02-03T23:03:44.158Z,73.61
2016-02-03T23:04:44.171Z,73.14
2016-02-03T23:05:44.159Z,72.96
2016-02-03T23:06:44.161Z,72.96
2016-02-03T23:07:44.133Z,73.99
2016-02-03T23:08:44.152Z,74.66
2016-02-03T23:09:44.123Z,74.95
2016-02-03T23:10:44.126Z,75.13
2016-02-03T23:11:47.847Z,75.51
2016-02-03T23:12:49.913Z,75.51
2016-02-03T23:13:44.119Z,74.66
2016-02-03T23:14:44.152Z,74.71
2016-02-03T23:15:44.108Z,74.28
2016-02-03T23:16:44.129Z,73.71
2016-02-03T23:17:44.115Z,73.68
2016-02-03T23:18:44.105Z,73.49
2016-02-03T23:19:44.107Z,73.86
2016-02-03T23:20:44.126Z,74.75
2016-02-03T23:21:44.114Z,74.9
2016-02-03T23:22:44.101Z,73.58
2016-02-03T23:23:44.088Z,73.68
2016-02-03T23:24:50.076Z,74.05
2016-02-03T23:25:44.093Z,74.15
2016-02-03T23:26:44.096Z,74.43
2016-02-03T23:27:44.115Z,74.52
2016-02-03T23:28:44.086Z,74.62
2016-02-03T23:29:44.107Z,74.81
2016-02-03T23:30:44.094Z,74.9
2016-02-03T23:31:44.096Z,75
2016-02-03T23:32:47.943Z,74.9
2016-02-03T23:33:44.053Z,75.19
2016-02-03T23:34:44.057Z,75.47
2016-02-03T23:35:44.074Z,75
2016-02-03T23:36:44.093Z,74.81
2016-02-03T23:37:44.065Z,75.19
2016-02-03T23:38:44.052Z,75.47
2016-02-03T23:39:44.024Z,75.66
2016-02-03T23:40:44.027Z,75.09
2016-02-03T23:41:44.045Z,74.9
2016-02-03T23:42:44.033Z,75.19
2016-02-03T23:43:44.036Z,75.76
2016-02-03T23:44:44.006Z,74.9
2016-02-03T23:45:44.009Z,74.9
2016-02-03T23:46:44.032Z,74.71
2016-02-03T23:47:44.003Z,75.09
2016-02-03T23:48:44.022Z,74.81
2016-02-03T23:49:44.025Z,74.71
2016-02-03T23:50:44.012Z,75
2016-02-03T23:51:43.999Z,75.38
2016-02-03T23:52:43.985Z,74.9
2016-02-03T23:53:43.977Z,74.81
2016-02-03T23:54:43.979Z,74.62
2016-02-03T23:55:44.013Z,74.15
2016-02-03T23:56:43.985Z,73.86
2016-02-03T23:57:43.987Z,74.47
2016-02-03T23:58:50.615Z,74.33
2016-02-03T23:59:43.961Z,73.86
